Tiempo atmosférico en la estación meteorológica de Baza, Granada (801 m.)

Fecha
DESCASC
Temp. máxima en grados centígrados (hora)
DESCASC
Temp. mínima en grados centígrados (hora)
DESCASC
Temp. media en grados centígrados
DESCASC
Racha de viento máxima en m/sg (hora)
DESCASC
Velocidad máxima media en intervalos de 10 minutos(hora)
DESCASC
Precipitaciones diarias en mm
DESCASC
Precipitaciones de 00:00 a 06:00 en mm
DESCASC
Precipitaciones de 06:00 a 12:00 en mm
DESCASC
Precipitaciones de 12:00 a 18:00 en mm
DESCASC
Precipitaciones de 18:00 a 24:00 en mm
DESCASC
17-08-2017 37.7 (16:50) 16.8 (08:20) 27.3 10.56 (19:00) 6.39 (19:00) 0 0 0 0 0
16-08-2017 37.4 (17:00) 17.5 (07:40) 27.5 8.33 (20:40) 4.72 (17:30) 0 0 0 0 0
15-08-2017 37.9 (17:20) 16 (00:00) 27 9.44 (19:00) 5.56 (17:50) 0 0 0 0 0
14-08-2017 34.8 (16:50) 14.5 (08:10) 24.6 11.39 (12:30) 6.67 (12:20) 0 0 0 0 0
13-08-2017 33.5 (16:00) 12.1 (00:00) 22.8 17.22 (12:50) 6.11 (13:40) 0 0 0 0 0
12-08-2017 33.5 (17:00) 13.8 (00:00) 23.7 11.67 (19:00) 6.67 (19:00) 0 0 0 0 0
11-08-2017 33.4 (16:10) 14.7 (00:00) 24.1 9.72 (19:50) 6.11 (19:10) 0 0 0 0 0
10-08-2017 31 (17:00) 14.6 (00:00) 22.8 10 (19:30) 6.39 (10:30) 0 0 0 0 0
09-08-2017 33.6 (15:40) 14.8 (00:00) 24.2 10.83 (15:30) 6.11 (15:20) 0 0 0 0 0
08-08-2017 35.2 (17:10) 19.9 (00:00) 27.6 10.83 (14:30) 6.11 (13:50) 0 0 0 0 0
07-08-2017 40 (15:50) 17.6 (00:00) 28.8 11.39 (16:10) 7.5 (16:10) 0 0 0 0 0
06-08-2017 40.8 (17:00) 16.4 (00:00) 28.6 10.83 (19:30) 6.67 (19:30) 0 0 0 0 0
05-08-2017 41.2 (16:30) 16.2 (00:00) 28.7 10.83 (19:30) 6.11 (19:20) 0 0 0 0 0
04-08-2017 41.1 (18:00) 15.1 (00:00) 28.1 10.28 (19:20) 6.39 (19:10) 0 0 0 0 0
03-08-2017 38.8 (16:40) 15.2 (00:00) 27 7.5 (18:20) 4.72 (19:10) 0 0 0 0 0
02-08-2017 37.6 (18:20) 20.7 (00:00) 29.1 8.33 (00:10) 4.72 (21:20) 0 0 0 0 0
01-08-2017 33.3 (19:40) 18.4 (00:00) 25.8 25.28 (20:10) 11.94 (20:00) 0 0 0 0 0
31-07-2017 39.3 (16:50) 15.4 (00:00) 27.3 10.56 (17:40) 5.83 (17:50) 0 0 0 0 0
30-07-2017 41.2 (17:30) 15.8 (00:00) 28.5 10.56 (18:30) 6.39 (19:30) 0 0 0 0 0
29-07-2017 39.9 (17:20) 14.9 (00:00) 27.4 8.06 (18:40) 4.72 (18:40) 0 0 0 0 0
28-07-2017 39.7 (17:10) 16 (00:00) 27.9 8.61 (21:20) 4.72 (21:10) 0 0 0 0 0
27-07-2017 38.5 (17:20) 15.4 (00:00) 26.9 7.5 (19:30) 5 (19:30) 0 0 0 0 0
26-07-2017 35.8 (17:20) 16.5 (00:00) 26.1 9.44 (21:00) 5.56 (21:00) 0 0 0 0 0
25-07-2017 36.7 (17:50) 15.6 (00:00) 26.2 10.28 (18:40) 6.39 (18:40) 0 0 0 0 0
24-07-2017 35.4 (16:50) 14.9 (00:00) 25.2 10.28 (17:30) 6.11 (18:50) 0 0 0 0 0
23-07-2017 36.9 (17:10) 17.6 (00:00) 27.3 8.61 (17:50) 5.56 (17:50) 0 0 0 0 0
22-07-2017 36.5 (17:30) 15.5 (00:00) 26 7.78 (19:00) 5 (19:00) 0 0 0 0 0

Gráficas

Temp. máximas Temp. mínimas Temp. medias Precipitaciones Rachas de viento máximas Velocidades máximas media en intervalos de 10 minutos

Datos horarios

Fecha y hora oficial Temperatura (ºC) Velocidad del viento (km/h) Dirección del viento Racha (km/h) Dirección de racha Precipitación (mm) Presión (hPa) Tendencia (hPa) Humedad (%)
2017-08-20 23:00:00 22.2 17 Sudeste 33 Sudeste 0 931.1 2.1 78
2017-08-20 22:00:00 23.6 17 Sudeste 28 Sudeste 0 930.5 1.4 72
2017-08-20 21:00:00 25.9 17 Sudeste 34 Sudeste 0 929.5 0.2 60
2017-08-20 20:00:00 29.1 22 Sudeste 39 Sudeste 0 929 -0.6 44
2017-08-20 19:00:00 31.7 23 Sudeste 38 Sudeste 0 929.1 -1.1 37
2017-08-20 18:00:00 33.7 22 Sudeste 36 Sudeste 0 929.3 -1.4 31
2017-08-20 17:00:00 34.8 20 Sudeste 33 Sudeste 0 929.6 -1.5 28
2017-08-20 16:00:00 34.4 18 Sudeste 33 Sudeste 0 930.2 -1.4 26
2017-08-20 15:00:00 33.8 21 Sudeste 35 Sudeste 0 930.7 -1 25
2017-08-20 14:00:00 32.2 21 Sudeste 35 Sudeste 0 931.1 -0.8 26
2017-08-20 13:00:00 31.1 19 Sudeste 33 Sudeste 0 931.6 -0.2 25
2017-08-20 12:00:00 29 19 Sudeste 31 Sudeste 0 931.7 0 26
2017-08-20 11:00:00 25.5 13 Sudeste 22 Sudeste 0 931.9 0.9 36
2017-08-20 10:00:00 21.5 6 Este 13 Este 0 931.8 1.2 61
2017-08-20 09:00:00 17.9 0 Calma 8 Sur 0 931.7 1.2 81
2017-08-20 08:00:00 16.5 3 Este 9 Sudeste 0 931 0.5 85
2017-08-20 07:00:00 17.5 8 Sudeste 14 Sudeste 0 930.6 0.1 89
2017-08-20 06:00:00 18.5 7 Este 14 Sudeste 0 930.5 -0.3 88
2017-08-20 05:00:00 18.8 7 Este 14 Este 0 930.5 -0.5 87
2017-08-20 04:00:00 19.8 5 Sudeste 16 Sudeste 0 930.5 -0.7 86
2017-08-20 03:00:00 20.5 11 Sudeste 24 Sudeste 0 930.8 -0.1 84
2017-08-20 02:00:00 21.1 11 Sudeste 21 Sudeste 0 931 0.5 82
2017-08-20 01:00:00 21.8 14 Sudeste 29 Sudeste 0 931.2 1.5 78
2017-08-20 00:00:00 22.5 15 Sudeste 27 Sudeste 0 930.9 2.1 71
2017-08-19 23:00:00 23.5 19 Sur 29 Sur 0 930.5 2.5 64
2017-08-19 22:00:00 24.9 11 Sudeste 30 Sudeste 0 929.7 2.8 58
2017-08-19 21:00:00 27.3 16 Sudeste 30 Sudeste 0 928.8 1.6 50
2017-08-19 20:00:00 30.1 19 Sudeste 37 Sudeste 0 928 0.7 41
2017-08-19 19:00:00 32.9 22 Sudeste 39 Sudeste 0 926.9 -0.9 36
2017-08-19 18:00:00 34.4 22 Sudeste 41 Sudeste 0 927.2 -1 31
2017-08-19 17:00:00 35.8 23 Sudeste 36 Sudeste 0 927.3 -1.1 27
2017-08-19 16:00:00 36.7 18 Sudeste 32 Sudeste 0 927.8 -1 26
2017-08-19 15:00:00 35.4 19 Sudeste 32 Sudeste 0 928.2 -0.7 27
2017-08-19 14:00:00 34.5 17 Sudeste 29 Sudeste 0 928.4 -0.7 29
2017-08-19 13:00:00 33.9 10 Sudeste 20 Sudeste 0 928.8 -0.4 27
2017-08-19 12:00:00 31.7 11 Sudeste 21 Sudeste 0 928.9 -0.1 28
2017-08-19 11:00:00 25.6 5 Sur 12 Sur 0 929.1 0.4 40
2017-08-19 10:00:00 21 2 Norte 6 Norte 0 929.2 1 50
2017-08-19 09:00:00 18.4 3 Sudeste 4 Sudeste 0 929 1.2 67
2017-08-19 08:00:00 16.7 3 Sudoeste 6 Oeste 0 928.7 0.8 67
2017-08-19 07:00:00 16.9 0 Calma 6 Sur 0 928.2 0.1 61
2017-08-19 06:00:00 17.5 3 Sudeste 11 Sur 0 927.8 -0.5 60
2017-08-19 05:00:00 17.6 8 Sur 9 Sudeste 0 927.9 -0.6 67
2017-08-19 04:00:00 19.6 4 Sudoeste 6 Este 0 928.1 -0.7 63
2017-08-19 03:00:00 20.3 3 Nordeste 9 Sudeste 0 928.3 -0.4 60
2017-08-19 02:00:00 21.5 7 Sudeste 11 Sudeste 0 928.5 0 60
2017-08-19 01:00:00 23.1 4 Sudeste 14 Sudeste 0 928.8 1 57
2017-08-19 00:00:00 24.8 9 Sudeste 15 Sudeste 0 928.7 1.6 53
2017-08-18 23:00:00 26.4 8 Este 29 Sudeste 0 928.5 2.1 48
2017-08-18 22:00:00 27.9 12 Sudeste 21 Sudeste 0 927.8 1.5 42
2017-08-18 21:00:00 30.5 12 Sur 26 Sudeste 0 927.1 0.7 34
2017-08-18 20:00:00 34.6 13 Sudeste 30 Sudeste 0 926.4 -0.5 25
2017-08-18 19:00:00 37.9 12 Sudeste 26 Sudeste 0 926.3 -1.4 17
2017-08-18 18:00:00 39.3 5 Sudoeste 19 Noroeste 0 926.4 -1.9 12
2017-08-18 17:00:00 38.2 9 Noroeste 19 Noroeste 0 926.9 -1.8 12
2017-08-18 16:00:00 37 5 Nordeste 14 Noroeste 0 927.7 -1.6 13
2017-08-18 15:00:00 36.2 3 Nordeste 18 Oeste 0 928.3 -1.6 18
2017-08-18 14:00:00 35 5 Oeste 12 Noroeste 0 928.7 -1.5 20
2017-08-18 13:00:00 32.8 4 Noroeste 9 Sudeste 0 929.3 -0.9 26
2017-08-18 12:00:00 29 4 Noroeste 9 Norte 0 929.9 -0.3 32
2017-08-18 11:00:00 24.3 4 Oeste 8 Oeste 0 930.2 0.1 45
2017-08-18 10:00:00 20.7 3 Norte 8 Norte 0 930.2 0.4 60
2017-08-18 09:00:00 17.8 2 Nordeste 11 Sudeste 0 930.2 0.4 58
2017-08-18 08:00:00 16.1 10 Sudeste 12 Sudeste 0 930.1 0.4 63
2017-08-18 07:00:00 16.9 9 Sur 11 Sur 0 929.8 -0.2 66
2017-08-18 06:00:00 18.2 6 Sur 10 Este 0 929.8 -0.6 67
2017-08-18 05:00:00 19.6 7 Sudeste 12 Este 0 929.7 -1 67
2017-08-18 04:00:00 20 8 Sudeste 12 Sudeste 0 930 -0.7 66
2017-08-18 03:00:00 20.2 6 Sudeste 13 Sudeste 0 930.4 -0.4 66
2017-08-18 02:00:00 21.1 7 Este 11 Sudeste 0 930.7 0.2 62
2017-08-18 01:00:00 22.3 8 Sudeste 15 Sudeste 0 930.7 1 61
2017-08-18 00:00:00 23.3 6 Este 18 Sudeste 0 930.8 1.9 58
2017-08-17 23:00:00 24.2 9 Sudeste 21 Sudeste 0 930.5 1.9 58
2017-08-17 22:00:00 25.5 9 Sur 22 Sudeste 0 929.7 1.2 47
2017-08-17 21:00:00 27.8 15 Sudeste 30 Sudeste 0 928.9 0.4 41
2017-08-17 20:00:00 30.6 21 Sudeste 37 Sudeste 0 928.6 0 37
2017-08-17 19:00:00 33.8 23 Sudeste 38 Sudeste 0 928.5 -0.5 32
2017-08-17 18:00:00 36.2 20 Sudeste 33 Sudeste 0 928.5 -1 26
2017-08-17 17:00:00 37.3 18 Sudeste 31 Sur 0 928.6 -1.4 23
2017-08-17 16:00:00 36.3 18 Sur 31 Sudeste 0 929 -1.5 27
2017-08-17 15:00:00 35.8 18 Sur 34 Sur 0 929.5 -1.3 29
2017-08-17 14:00:00 34.3 18 Sudeste 35 Sudeste 0 930 -1.1 32
2017-08-17 13:00:00 32.9 17 Sur 25 Sur 0 930.5 -0.7 31
2017-08-17 12:00:00 29.6 6 Sur 12 Sudeste 0 930.8 -0.2 42
2017-08-17 11:00:00 25.4 4 Noroeste 11 Norte 0 931.1 0.4 49
2017-08-17 10:00:00 22.5 4 Oeste 8 Noroeste 0 931.2 0.8 56
2017-08-17 09:00:00 18.4 3 Sur 6 Sudeste 0 931 1 68
2017-08-17 08:00:00 17.1 2 Noroeste 4 Oeste 0 930.7 0.5 64
2017-08-17 07:00:00 17.5 3 Norte 10 Sudeste 0 930.4 0.1 60
2017-08-17 06:00:00 16.9 8 Sudeste 11 Sudeste 0 930 -0.4 65
2017-08-17 05:00:00 18.1 6 Sudeste 9 Sur 0 930.2 -0.5 56
2017-08-17 04:00:00 19.5 5 Sudoeste 10 Sudeste 0 930.3 -0.5 48
2017-08-17 03:00:00 20.4 5 Sudeste 8 Sudeste 0 930.4 -0.3 57
2017-08-17 02:00:00 21.8 6 Sudeste 9 Sudeste 0 930.7 0.3 65
2017-08-17 01:00:00 23.6 5 Sur 14 Sudeste 0 930.8 0.6 68
2017-08-17 00:00:00 24.6 7 Sur 22 Sudeste 0 930.7 1.2 64
2017-08-16 23:00:00 25.6 13 Sur 25 Sudeste 0 930.4 1.7 59
2017-08-16 22:00:00 26.9 14 Sur 28 Sudeste 0 930.2 1.6 54
2017-08-16 21:00:00 29.3 15 Sur 30 Sudeste 0 929.5 0.8 47
2017-08-16 20:00:00 35 12 Oeste 27 Oeste 0 928.7 -0.1 13
2017-08-16 19:00:00 35.7 13 Noroeste 28 Oeste 0 928.6 -0.4 14
2017-08-16 18:00:00 36.6 17 Oeste 29 Oeste 0 928.7 -0.8 13
2017-08-16 17:00:00 37.4 11 Oeste 25 Oeste 0 928.8 -1.1 12
2017-08-16 16:00:00 36.5 9 Noroeste 28 Noroeste 0 929 -1.6 14
2017-08-16 15:00:00 35.3 12 Noroeste 24 Noroeste 0 929.5 -1.7 15
2017-08-16 14:00:00 34.7 7 Norte 21 Norte 0 929.9 -1.5 21
2017-08-16 13:00:00 32.4 8 Noroeste 16 Norte 0 930.6 -0.7 25
2017-08-16 12:00:00 28.6 7 Norte 14 Norte 0 931.2 -0.2 39
2017-08-16 11:00:00 24.6 5 Noroeste 10 Noroeste 0 931.4 0.4 59
2017-08-16 10:00:00 21.8 4 Noroeste 7 Noroeste 0 931.3 0.8 74
2017-08-16 09:00:00 19.6 4 Noroeste -- -- -- 931.4 1 80
2017-08-16 08:00:00 17.6 4 Sur 5 Sur 0 931 0.6 85
2017-08-16 07:00:00 17.7 4 Sur 7 Sudeste 0 930.5 0.2 87
2017-08-16 06:00:00 18.6 5 Sur 9 Sudeste 0 930.4 -0.2 86
2017-08-16 05:00:00 19.7 2 Sudoeste 6 Este 0 930.4 -0.5 83
2017-08-16 04:00:00 20.4 3 Nordeste 9 Sudeste 0 930.3 -0.7 83
2017-08-16 03:00:00 21.6 8 Sur 10 Este 0 930.6 -0.3 83
2017-08-16 02:00:00 22.4 6 Este 13 Sudeste 0 930.9 0.4 81
2017-08-16 01:00:00 23.6 7 Sur 15 Sur 0 931 1.1 75
2017-08-16 00:00:00 24.5 10 Sudeste 16 Sudeste 0 930.9 1.6 69
2017-08-15 23:00:00 25.4 8 Sudeste 15 Sudeste 0 930.5 1.8 59
2017-08-15 22:00:00 26.4 10 Sudeste 23 Sudeste 0 929.9 2.1 55
2017-08-15 21:00:00 27.4 10 Sur 17 Sudeste 0 929.3 1.9 55
2017-08-15 20:00:00 29.5 9 Sudeste 32 Sur 0 928.7 1.2 50
2017-08-15 19:00:00 32.6 19 Sudeste 34 Sudeste 0 927.8 -0.1 38
2017-08-15 18:00:00 35.8 19 Sudeste 33 Sudeste 0 927.4 -1.2 28
2017-08-15 17:00:00 37.4 6 Sudeste 24 Oeste 0 927.5 -1.6 22
2017-08-15 16:00:00 37.5 3 Sudoeste 15 Oeste 0 927.9 -1.9 18
2017-08-15 15:00:00 35 8 Norte 20 Norte 0 928.6 -1.6 21
2017-08-15 14:00:00 33.9 6 Noroeste 11 Norte 0 929.1 -1.1 21
2017-08-15 13:00:00 31.4 4 Sudeste 9 Este 0 929.8 -0.4 28
2017-08-15 12:00:00 27.2 4 Noroeste 9 Oeste 0 930.2 0.4 37
2017-08-15 11:00:00 24.2 6 Noroeste 13 Noroeste 0 930.2 1 47
2017-08-15 10:00:00 21.1 3 Norte 7 Norte 0 930.2 1 59
2017-08-15 09:00:00 17.6 0 Calma 10 Sudeste 0 929.8 0.9 71
2017-08-15 08:00:00 16 8 Sudeste 12 Sudeste 0 929.2 0 76
2017-08-15 07:00:00 16.3 9 Sudeste 12 Sudeste 0 929.2 -0.1 79
2017-08-15 06:00:00 17.4 7 Sudeste 8 Sudeste 0 928.9 -0.7 75
2017-08-15 05:00:00 18.9 5 Sur 9 Sudeste 0 929.2 -0.4 74
2017-08-15 04:00:00 20.2 6 Sudeste 15 Sudeste 0 929.3 0.1 72
2017-08-15 03:00:00 20.9 9 Sudeste 24 Sur 0 929.6 0.4 69
2017-08-15 02:00:00 21.4 14 Sur 26 Sur 0 929.6 0.6 67
2017-08-15 01:00:00 21.6 12 Sur 19 Sur 0 929.2 1.3 69
2017-08-15 00:00:00 21.9 13 Sur 20 Sur 0 929.2 1.8 69
2017-08-14 23:00:00 22.6 12 Sudeste 24 Sudeste 0 929 2.1 67
2017-08-14 22:00:00 23.7 17 Sudeste 25 Sudeste 0 927.9 1.4 61
2017-08-14 21:00:00 26.2 15 Sur 25 Sudeste 0 927.4 1.1 51
2017-08-14 20:00:00 29.9 12 Sudeste 32 Sudeste 0 926.9 0.5 37
2017-08-14 19:00:00 32 18 Sudeste 33 Sudeste 0 926.5 0.1 32
2017-08-14 18:00:00 34 17 Sudeste 30 Sudeste 0 926.3 -0.5 27
2017-08-14 17:00:00 34.5 16 Sudeste 36 Sur 0 926.4 -1.2 24
2017-08-14 16:00:00 34.5 17 Sudeste 35 Sudeste 0 926.4 -1.5 22
2017-08-14 15:00:00 33.8 19 Sudeste 37 Sudeste 0 926.8 -1.5 20
2017-08-14 14:00:00 31.8 18 Sudeste 36 Sudeste 0 927.6 -0.9 18
2017-08-14 13:00:00 30 24 Sudeste 41 Sudeste 0 927.9 -0.7 16
2017-08-14 12:00:00 28 21 Sudeste 31 Sudeste 0 928.3 -0.4 16
2017-08-14 11:00:00 23.5 3 Sur 12 Este 0 928.5 0.2 25
2017-08-14 10:00:00 19.8 5 Nordeste 10 Norte 0 928.6 0.5 43
2017-08-14 09:00:00 16.8 5 Nordeste 13 Sudeste 0 928.7 0.4 67
2017-08-14 08:00:00 14.6 7 Sudeste 12 Este 0 928.3 -0.4 71
2017-08-14 07:00:00 15 8 Sudeste 10 Sudeste 0 928.1 -0.8 85
2017-08-14 06:00:00 16.4 6 Sudeste 9 Sudeste 0 928.3 -0.7 87
2017-08-14 05:00:00 17.5 4 Sudeste 20 Sur 0 928.7 -0.6 85
2017-08-14 04:00:00 18.1 14 Sudeste 23 Sudeste 0 928.9 -0.2 86
2017-08-14 03:00:00 18.7 13 Sudeste 26 Sudeste 0 929 0 85
2017-08-14 02:00:00 19.1 12 Sudeste 25 Sudeste 0 929.3 0.4 84
2017-08-14 01:00:00 19.4 12 Sur 27 Sudeste 0 929.1 1 84
2017-08-14 00:00:00 20.2 14 Sudeste 23 Sudeste 0 929 1.4 79
2017-08-13 23:00:00 21.5 12 Sudeste 22 Sudeste 0 928.9 1.8 70
2017-08-13 22:00:00 23.1 12 Sudeste 29 Sudeste 0 928.1 1.3 61
2017-08-13 21:00:00 24.8 17 Sudeste 32 Sudeste 0 927.6 0.6 53
2017-08-13 20:00:00 27.6 20 Sudeste 36 Sudeste 0 927.1 -0.1 42
2017-08-13 19:00:00 29.7 21 Sudeste 38 Sudeste 0 926.8 -0.7 37
2017-08-13 18:00:00 32.1 21 Sudeste 34 Sudeste 0 927 -1.1 29
2017-08-13 17:00:00 32.8 21 Sudeste 38 Sudeste 0 927.2 -1.4 26
2017-08-13 16:00:00 33.2 19 Sudeste 35 Este 0 927.5 -1.9 22
2017-08-13 15:00:00 32.4 20 Sudeste 34 Este 0 928.1 -1.8 18
2017-08-13 14:00:00 32 19 Sudeste 35 Sudeste 0 928.6 -1.7 16
2017-08-13 13:00:00 30.3 10 Sudeste 62 Oeste 0 929.4 -0.7 21
2017-08-13 12:00:00 26.5 7 Este 27 Sudeste 0 929.9 -0.1 29
2017-08-13 11:00:00 23.1 18 Sudeste 28 Sudeste 0 930.3 0.4 34
2017-08-13 10:00:00 19.6 14 Sudeste 21 Sudeste 0 930.1 0.4 47
2017-08-13 09:00:00 14.4 5 Sudeste 8 Sudeste 0 930 0.1 71
2017-08-13 08:00:00 12.3 7 Sur 11 Sudeste 0 929.9 -0.3 84
2017-08-13 07:00:00 13 4 Sur 6 Sudeste 0 929.7 -0.6 81
2017-08-13 06:00:00 13.6 3 Sur 10 Este 0 929.9 -0.8 79
2017-08-13 05:00:00 14.6 8 Este 13 Sudeste 0 930.2 -0.9 84
2017-08-13 04:00:00 15.3 5 Este 8 Sudeste 0 930.3 -0.9 81
2017-08-13 03:00:00 16.4 7 Sudeste 17 Sudeste 0 930.7 -0.5 80
2017-08-13 02:00:00 17.9 10 Sudeste 19 Sur 0 931.1 0 71
2017-08-13 01:00:00 18.8 11 Sudeste 22 Sudeste 0 931.2 0.5 62
2017-08-13 00:00:00 19.8 12 Sur 24 Sur 0 931.2 0.8 53
2017-08-12 23:00:00 20.5 12 Sur 21 Sudeste 0 931.1 1.3 51
2017-08-12 22:00:00 21.6 12 Sudeste 26 Sudeste 0 930.7 1.3 46
2017-08-12 21:00:00 23.9 12 Sudeste 39 Sudeste 0 930.4 1.1 45
2017-08-12 20:00:00 26.1 24 Sudeste 39 Sudeste 0 929.8 0.4 42
2017-08-12 19:00:00 29.1 24 Sudeste 42 Sudeste 0 929.4 -0.5 33
2017-08-12 18:00:00 31.9 21 Sudeste 39 Sudeste 0 929.3 -1.2 26
2017-08-12 17:00:00 33 19 Sudeste 35 Sudeste 0 929.4 -1.6 21
2017-08-12 16:00:00 32.6 19 Sudeste 33 Sudeste 0 929.9 -1.6 21
2017-08-12 15:00:00 31.8 14 Sudeste 30 Sudeste 0 930.5 -1.5 19
2017-08-12 14:00:00 30.4 15 Sudeste 28 Sudeste 0 931 -1.3 20
2017-08-12 13:00:00 28.6 15 Sudeste 30 Sudeste 0 931.5 -1.1 22
2017-08-12 12:00:00 26.7 14 Sudeste 25 Sudeste 0 932 -0.5 24
2017-08-12 11:00:00 22.9 13 Sudeste 23 Sudeste 0 932.3 0.1 29
2017-08-12 10:00:00 18.2 3 Este 9 Nordeste 0 932.6 0.8 71
2017-08-12 09:00:00 15.8 3 Este 11 Sudeste 0 932.5 1.1 88
2017-08-12 08:00:00 13.8 6 Sudeste 11 Sudeste 0 932.2 0.7 90
2017-08-12 07:00:00 14.5 6 Este 10 Este 0 931.8 0.1 89
2017-08-12 06:00:00 15.6 8 Este 15 Sudeste 0 931.4 0 88
2017-08-12 05:00:00 16.3 8 Sur 15 Sudeste 0 931.5 0 90
2017-08-12 04:00:00 16.6 9 Sudeste 23 Sur 0 931.7 0.2 88
2017-08-12 03:00:00 17.3 14 Sudeste 25 Sudeste 0 931.4 0 84
2017-08-12 02:00:00 18.2 10 Sudeste 20 Sudeste 0 931.5 0.3 79
2017-08-12 01:00:00 18.7 11 Sudeste 27 Sudeste 0 931.5 0.9 76
2017-08-12 00:00:00 19.5 14 Sudeste 27 Sudeste 0 931.4 1.9 72
2017-08-11 23:00:00 20.3 12 Sudeste 24 Sudeste 0 931.2 2.5 66
2017-08-11 22:00:00 21.7 12 Sudeste 27 Sudeste 0 930.6 2.1 59
2017-08-11 21:00:00 24 17 Sudeste 34 Sudeste 0 929.5 0.7 50
2017-08-11 20:00:00 27.6 19 Sudeste 35 Sudeste 0 928.7 -0.4 34
2017-08-11 19:00:00 29.9 19 Sudeste 33 Sudeste 0 928.5 -1.1 28
2017-08-11 18:00:00 31.7 18 Sudeste 30 Sudeste 0 928.8 -1.2 24
2017-08-11 17:00:00 32.4 18 Sudeste 29 Sudeste 0 929.1 -1.6 22
2017-08-11 16:00:00 33.3 11 Sudeste 24 Este 0 929.6 -1.7 22
2017-08-11 15:00:00 31.8 10 Sudeste 20 Este 0 930 -1.6 22
2017-08-11 14:00:00 30.3 10 Este 22 Este 0 930.7 -1.3 27
2017-08-11 13:00:00 28.4 10 Sur 26 Sudeste 0 931.3 -0.6 31
2017-08-11 12:00:00 26.1 13 Sudeste 22 Sudeste 0 931.6 -0.4 37
2017-08-11 11:00:00 21.9 9 Sudeste 16 Sudeste 0 932 0.3 58
2017-08-11 10:00:00 18.4 4 Sur 13 Sudeste 0 931.9 0.3 78
2017-08-11 09:00:00 15.9 4 Este 6 Sudeste 0 932 0.3 87
2017-08-11 08:00:00 15 2 Noroeste 6 Sudoeste 0 931.7 -0.2 89
2017-08-11 07:00:00 15 0 Calma 6 Sudeste 0 931.6 -0.5 86
2017-08-11 06:00:00 15.8 3 Sudeste 8 Sur 0 931.7 -0.7 83
2017-08-11 05:00:00 17.2 3 Sudeste 9 Sudeste 0 931.9 -1 81
2017-08-11 04:00:00 17.7 7 Sudeste 17 Sudeste 0 932.1 -0.7 79
2017-08-11 03:00:00 17.8 9 Sudeste 17 Sudeste 0 932.4 0 84
2017-08-11 02:00:00 17.8 7 Sudeste 15 Sudeste 0 932.9 0.7 84
2017-08-11 01:00:00 18.5 10 Sudeste 24 Sudeste 0 932.8 1.3 81
2017-08-11 00:00:00 18.9 14 Sudeste 22 Sudeste 0 932.4 1.7 79
2017-08-10 23:00:00 19.3 13 Sudeste 25 Sudeste 0 932.2 2.2 75
2017-08-10 22:00:00 20 13 Sudeste 30 Sudeste 0 931.5 1.9 71
2017-08-10 21:00:00 22.3 18 Sudeste 35 Sudeste 0 930.7 1.1 62
2017-08-10 20:00:00 25 20 Sudeste 36 Sudeste 0 930 0.2 50
2017-08-10 19:00:00 27.9 21 Sudeste 35 Sudeste 0 929.6 -0.7 38
2017-08-10 18:00:00 30.4 17 Sudeste 30 Sudeste 0 929.6 -1.3 30
2017-08-10 17:00:00 30.9 13 Sudeste 30 Sudeste 0 929.8 -1.3 27
2017-08-10 16:00:00 28.8 15 Sur 34 Sur 0 930.3 -1 36
2017-08-10 15:00:00 28 21 Sudeste 35 Sudeste 0 930.9 -0.3 40
2017-08-10 14:00:00 26.1 20 Sudeste 35 Sudeste 0 931.1 0.3 47
2017-08-10 13:00:00 24.9 19 Sudeste 33 Sudeste 0 931.3 0.9 51
2017-08-10 12:00:00 23 19 Sudeste 34 Sudeste 0 931.2 1.1 59
2017-08-10 11:00:00 21.5 23 Sudeste 35 Sudeste 0 930.8 1.4 66
2017-08-10 10:00:00 21.3 16 Sudeste 28 Sudeste 0 930.4 1.6 66
2017-08-10 09:00:00 18.8 6 Sur 14 Oeste 0 930.1 2 57
2017-08-10 08:00:00 15.6 4 Este 8 Sudeste 0 929.4 1.5 55
2017-08-10 07:00:00 14.9 7 Sur 11 Sudeste 0 928.8 1.4 46
2017-08-10 06:00:00 15.4 9 Sur 12 Sur 0 928.1 0.6 42
2017-08-10 05:00:00 16.6 6 Sur 13 Sur 0 927.9 0.6 33
2017-08-10 04:00:00 16.6 8 Sudeste 11 Sudeste 0 927.4 0.3 34
2017-08-10 03:00:00 19.4 4 Sudeste 18 Oeste 0 927.5 0.4 28
2017-08-10 02:00:00 21.8 9 Oeste 19 Oeste 0 927.3 0.7 23
2017-08-10 01:00:00 18.7 9 Sur 13 Sudeste 0 927.1 1.3 27
2017-08-10 00:00:00 20 6 Sur 9 Sur 0 927.1 2.1 26
2017-08-09 23:00:00 23.7 5 Sudoeste 12 Sudoeste 0 926.6 2 19
2017-08-09 22:00:00 26.5 8 Oeste 19 Oeste 0 925.8 1.3 14
2017-08-09 21:00:00 28.9 10 Oeste 19 Noroeste 0 925 0.2 13
2017-08-09 20:00:00 30.7 15 Oeste 32 Oeste 0 924.6 -0.1 12
2017-08-09 19:00:00 31.9 17 Oeste 31 Oeste 0 924.5 -0.3 11
2017-08-09 18:00:00 32.2 16 Oeste 32 Oeste 0 924.8 -0.2 11
2017-08-09 17:00:00 32.6 17 Oeste 34 Noroeste 0 924.7 -0.9 12
2017-08-09 16:00:00 32.8 18 Oeste 39 Oeste 0 924.8 -1.5 12
2017-08-09 15:00:00 32.3 17 Oeste 35 Oeste 0 925 -1.6 9
2017-08-09 14:00:00 31.1 12 Noroeste 28 Noroeste 0 925.6 -1.4 13
2017-08-09 13:00:00 28.9 12 Noroeste 24 Oeste 0 926.3 -0.7 16
2017-08-09 12:00:00 25.9 6 Norte 14 Noroeste 0 926.6 -0.3 42
2017-08-09 11:00:00 22.8 6 Norte 14 Norte 0 927 0.1 56
2017-08-09 10:00:00 20.5 7 Norte 10 Norte 0 927 0.4 59
2017-08-09 09:00:00 17 6 Sudeste 11 Sudeste 0 926.9 0.5 62
2017-08-09 08:00:00 14.9 6 Sur 10 Sur 0 926.9 0.6 58
2017-08-09 07:00:00 14.8 8 Sur 9 Sur 0 926.6 0.1 62
2017-08-09 06:00:00 16.4 3 Este 10 Sur 0 926.4 -0.1 68
2017-08-09 05:00:00 17.3 5 Sur 8 Sudeste 0 926.3 -0.5 66
2017-08-09 04:00:00 18.3 4 Nordeste 15 Sur 0 926.5 -0.1 46
2017-08-09 03:00:00 18.8 11 Sur 15 Sur 0 926.5 -0.2 24
2017-08-09 02:00:00 18.1 7 Sur 12 Sudeste 0 926.8 0.2 23
2017-08-09 01:00:00 19.5 9 Sudeste 14 Sudeste 0 926.6 0.2 22
2017-08-09 00:00:00 21.4 8 Sudoeste 15 Oeste 0 926.7 1.2 19
2017-08-08 23:00:00 25.7 10 Oeste 17 Oeste 0 926.6 1.7 12
2017-08-08 22:00:00 27.5 9 Oeste 18 Oeste 0 926.4 1.7 11
2017-08-08 21:00:00 30.1 14 Noroeste 26 Noroeste 0 925.5 0.7 9
2017-08-08 20:00:00 33 10 Noroeste 28 Oeste 0 924.9 0 8
2017-08-08 19:00:00 33.4 18 Noroeste 33 Noroeste 0 924.7 -0.5 8
2017-08-08 18:00:00 34 18 Oeste 37 Oeste 0 924.8 -0.5 7
2017-08-08 17:00:00 35 14 Noroeste 28 Noroeste 0 924.9 -0.4 7
2017-08-08 16:00:00 34.3 18 Oeste 33 Oeste 0 925.2 -0.4 9
2017-08-08 15:00:00 33.8 17 Noroeste 39 Noroeste 0 925.3 -0.8 11
2017-08-08 14:00:00 32.9 19 Oeste 37 Oeste 0 925.3 -0.7 12
2017-08-08 13:00:00 29.6 10 Norte 26 Norte 0 925.6 -0.3 16
2017-08-08 12:00:00 28.5 15 Noroeste 26 Noroeste 0 926.1 0.7 17
2017-08-08 11:00:00 27.4 17 Noroeste 27 Noroeste 0 926 0.9 20
2017-08-08 10:00:00 25.9 18 Oeste 27 Oeste 0 925.9 1.1 22
2017-08-08 09:00:00 23.9 13 Oeste 21 Oeste 0 925.4 0.5 33
2017-08-08 08:00:00 20.1 8 Sur 11 Sur 0 925.1 0 60
2017-08-08 07:00:00 22.5 4 Sur 13 Oeste 0 924.8 -0.4 50
2017-08-08 06:00:00 22.4 5 Sudeste 13 Sudeste 0 924.9 -0.8 49
2017-08-08 05:00:00 22.4 5 Este 15 Sudeste 0 925.1 -0.9 52
2017-08-08 04:00:00 23 9 Sudeste 14 Sudeste 0 925.2 -1.3 51
2017-08-08 03:00:00 24.7 10 Sudeste 17 Sudeste 0 925.7 -0.9 44
2017-08-08 02:00:00 27.2 7 Sur 16 Sudoeste 0 926 -0.5 35
2017-08-08 01:00:00 28.4 8 Oeste 14 Oeste 0 926.5 0.7 28
2017-08-08 00:00:00 26.2 7 Sur 12 Sudeste 0 926.6 1 54
2017-08-07 23:00:00 27.2 8 Sudeste 20 Sudeste 0 926.5 1.4 49
2017-08-07 22:00:00 29 11 Sudeste 21 Sur 0 925.8 1.3 38
2017-08-07 21:00:00 30.9 11 Sudeste 26 Sudeste 0 925.6 0.6 28
2017-08-07 20:00:00 35 15 Sur 23 Sudeste 0 925.1 0 17
2017-08-07 19:00:00 35 14 Este 28 Este 0 924.5 -1.2 17
2017-08-07 18:00:00 35.8 19 Sudeste 39 Sudeste 0 925 -1.2 21
2017-08-07 17:00:00 37.6 20 Sudeste 41 Sudeste 0 925.1 -1.9 28
2017-08-07 16:00:00 39.6 20 Sudeste 39 Sudeste 0 925.7 -1.9 24
2017-08-07 15:00:00 38.3 14 Noroeste 28 Noroeste 0 926.2 -2 13
2017-08-07 14:00:00 36.4 15 Noroeste 28 Noroeste 0 927 -1 17
2017-08-07 13:00:00 33.4 5 Nordeste 12 Nordeste 0 927.6 -0.7 22
2017-08-07 12:00:00 28.8 3 Este 8 Sudeste 0 928.2 0 42
2017-08-07 11:00:00 24.9 4 Este 12 Este 0 928 0 67
2017-08-07 10:00:00 21.3 3 Sudoeste 9 Norte 0 928.3 -0.2 81
2017-08-07 09:00:00 20.5 6 Norte 11 Norte 0 928.2 -0.4 82
2017-08-07 08:00:00 18.6 6 Sur 12 Sudeste 0 928 -0.5 79
2017-08-07 07:00:00 17.7 4 Sur 12 Sudeste 0 928.5 0 83
2017-08-07 06:00:00 18.9 7 Sudeste 9 Sur 0 928.6 0.1 82
2017-08-07 05:00:00 20 6 Sur 10 Sudeste 0 928.5 -0.3 88
2017-08-07 04:00:00 21.2 7 Sudeste 13 Sudeste 0 928.5 -0.7 87
2017-08-07 03:00:00 21.8 8 Sudeste 15 Sudeste 0 928.5 -0.6 85
2017-08-07 02:00:00 22.5 11 Sudeste 21 Sudeste 0 928.8 0 82
2017-08-07 01:00:00 22.9 11 Sudeste 22 Sudeste 0 929.2 1.4 80
2017-08-07 00:00:00 23.7 12 Sudeste 21 Sudeste 0 929.1 2 75
2017-08-06 23:00:00 24.4 10 Sudeste 24 Sudeste 0 928.8 2.4 66
2017-08-06 22:00:00 25.3 15 Sudeste 31 Sudeste 0 927.8 1.9 58
2017-08-06 21:00:00 27.7 17 Sudeste 37 Sudeste 0 927.1 1.3 56
2017-08-06 20:00:00 30.5 20 Sudeste 39 Sudeste 0 926.4 0.3 49
2017-08-06 19:00:00 35.7 20 Sudeste 33 Sudeste 0 925.9 -0.6 32
2017-08-06 18:00:00 39.7 9 Noroeste 34 Sudoeste 0 925.8 -1 10
2017-08-06 17:00:00 40.7 12 Oeste 28 Oeste 0 926.1 -1.4 8
2017-08-06 16:00:00 38.7 5 Norte 19 Sudeste 0 926.5 -1.4 13
2017-08-06 15:00:00 38.2 8 Nordeste 17 Este 0 926.8 -1.7 14
2017-08-06 14:00:00 36.5 4 Este 19 Oeste 0 927.5 -0.9 16
2017-08-06 13:00:00 34.8 6 Nordeste 14 Norte 0 927.9 -0.4 22
2017-08-06 12:00:00 30.9 6 Noroeste 11 Noroeste 0 928.5 0.5 25
2017-08-06 11:00:00 26.6 3 Noroeste 6 Nordeste 0 928.4 0.8 35
2017-08-06 10:00:00 22.7 3 Norte 7 Norte 0 928.3 1.3 45
2017-08-06 09:00:00 19.1 0 Calma 8 Oeste 0 928 1 63
2017-08-06 08:00:00 16.6 0 Calma 5 Sudeste 0 927.6 0.6 72
2017-08-06 07:00:00 17.3 4 Sudeste 7 Sudeste 0 927 -0.3 64
2017-08-06 06:00:00 18.6 4 Sudoeste 11 Sudeste 0 927 -0.6 53
2017-08-06 05:00:00 18.8 9 Sur 13 Sudoeste 0 927 -0.7 64
2017-08-06 04:00:00 20.1 8 Sur 12 Sur 0 927.3 -0.2 61
2017-08-06 03:00:00 21.5 4 Sudeste 9 Sudoeste 0 927.6 0 59
2017-08-06 02:00:00 23.2 5 Noroeste 10 Noroeste 0 927.7 0.5 55
2017-08-06 01:00:00 24.6 8 Sudeste 20 Sudeste 0 927.5 1.2 52
2017-08-06 00:00:00 25.9 12 Sudeste 23 Sudeste 0 927.6 1.9 51
2017-08-05 23:00:00 27.1 12 Sudeste 27 Sudeste 0 927.2 2.1 49
2017-08-05 22:00:00 29.1 14 Sudeste 26 Sudeste 0 926.3 1.6 42
2017-08-05 21:00:00 32.8 13 Sur 26 Sudeste 0 925.7 0.8 30
2017-08-05 20:00:00 36.2 14 Sudeste 39 Sudeste 0 925.1 -0.2 21
2017-08-05 19:00:00 38.6 19 Sudeste 35 Sudeste 0 924.7 -1.1 17
2017-08-05 18:00:00 39.6 16 Sur 33 Sudeste 0 924.9 -1.7 15
2017-08-05 17:00:00 40.5 12 Sur 32 Sudeste 0 925.3 -2 13
2017-08-05 16:00:00 40 8 Noroeste 24 Norte 0 925.8 -2.2 11
2017-08-05 15:00:00 39.5 5 Sur 16 Noroeste 0 926.6 -1.9 12
2017-08-05 14:00:00 38 4 Norte 14 Norte 0 927.3 -1.3 13
2017-08-05 13:00:00 36 5 Oeste 12 Noroeste 0 928 -0.7 14
2017-08-05 12:00:00 31.9 4 Norte 10 Noroeste 0 928.5 -0.1 23
2017-08-05 11:00:00 27.4 4 Norte 7 Norte 0 928.6 0.1 31
2017-08-05 10:00:00 22.4 2 Nordeste 5 Este 0 928.7 0.3 45
2017-08-05 09:00:00 18.5 2 Este 4 Sur 0 928.6 0.4 61
2017-08-05 08:00:00 16.3 4 Sur 7 Sudeste 0 928.5 0.3 62
2017-08-05 07:00:00 17.2 4 Sudeste 9 Sudeste 0 928.4 0.1 58
2017-08-05 06:00:00 18.2 7 Sudeste 9 Sur 0 928.2 -0.3 55
2017-08-05 05:00:00 19.5 6 Sur 9 Sudeste 0 928.2 -0.5 49
2017-08-05 04:00:00 20.8 6 Este 12 Sudeste 0 928.3 -0.3 47
2017-08-05 03:00:00 21.1 7 Sur 11 Sudeste 0 928.5 -0.2 48
2017-08-05 02:00:00 21.8 8 Sudeste 10 Este 0 928.7 0.3 46
2017-08-05 01:00:00 23.5 6 Sur 8 Sudeste 0 928.6 0.9 43
2017-08-05 00:00:00 25.9 7 Sudeste 12 Sudeste 0 928.7 1.9 36
2017-08-04 23:00:00 27.8 5 Sudeste 17 Sur 0 928.4 2.3 32
2017-08-04 22:00:00 30.4 9 Sur 30 Este 0 927.7 2 28
2017-08-04 21:00:00 33.3 16 Sudeste 37 Sudeste 0 926.8 0.8 23
2017-08-04 20:00:00 35.8 18 Sudeste 37 Sudeste 0 926.1 -0.2 21
2017-08-04 19:00:00 38.3 19 Sudeste 33 Sudeste 0 925.7 -1.2 17
2017-08-04 18:00:00 40 9 Norte 20 Norte 0 926 -1.5 9
2017-08-04 17:00:00 39.8 12 Noroeste 21 Norte 0 926.3 -1.8 9
2017-08-04 16:00:00 39.9 6 Este 17 Sudeste 0 926.9 -1.9 7
2017-08-04 15:00:00 38.5 8 Noroeste 15 Norte 0 927.5 -1.8 10
2017-08-04 14:00:00 36.3 6 Norte 14 Oeste 0 928.1 -1.5 15
2017-08-04 13:00:00 33.9 6 Noroeste 13 Norte 0 928.8 -0.8 18
2017-08-04 12:00:00 30.5 6 Noroeste 12 Norte 0 929.3 -0.2 22
2017-08-04 11:00:00 26.2 4 Nordeste 8 Nordeste 0 929.6 0.6 32
2017-08-04 10:00:00 22.2 4 Sudeste 6 Sudeste 0 929.6 0.8 39
2017-08-04 09:00:00 17.8 2 Sudeste 4 Sudeste 0 929.5 0.9 49
2017-08-04 08:00:00 15.6 3 Sur 8 Sudeste 0 929 0.4 50
2017-08-04 07:00:00 15.1 8 Sur 10 Sudeste 0 928.8 0.3 50
2017-08-04 06:00:00 15.6 8 Sudeste 9 Sudeste 0 928.6 0 45
2017-08-04 05:00:00 16.9 4 Sur 8 Sudeste 0 928.6 -0.4 39
2017-08-04 04:00:00 18.2 6 Sur 10 Sudeste 0 928.5 -0.5 33
2017-08-04 03:00:00 19.5 6 Sur 9 Sudeste 0 928.6 -0.5 29
2017-08-04 02:00:00 22.4 4 Este 17 Sudeste 0 929 0.1 27
2017-08-04 01:00:00 23.8 9 Sur 17 Sudeste 0 929 0.7 26
2017-08-04 00:00:00 25.4 10 Sudeste 18 Sur 0 929.1 1.3 29
2017-08-03 23:00:00 27.5 9 Sur 18 Sur 0 928.9 1.6 33
2017-08-03 22:00:00 31.9 7 Sudoeste 16 Oeste 0 928.3 1.2 13
2017-08-03 21:00:00 34.6 13 Oeste 25 Oeste 0 927.8 0.5 12
2017-08-03 20:00:00 36.5 16 Oeste 27 Oeste 0 927.3 -0.4 11
2017-08-03 19:00:00 37.6 13 Noroeste 27 Oeste 0 927.1 -1 10
2017-08-03 18:00:00 38.7 9 Oeste 24 Oeste 0 927.3 -1.2 9
2017-08-03 17:00:00 38 11 Noroeste 27 Oeste 0 927.7 -1.5 10
2017-08-03 16:00:00 37.3 5 Norte 23 Noroeste 0 928.1 -1.7 11
2017-08-03 15:00:00 36.3 13 Oeste 24 Oeste 0 928.5 -1.8 10
2017-08-03 14:00:00 34.9 10 Norte 22 Noroeste 0 929.2 -1.5 15
2017-08-03 13:00:00 33.5 4 Noroeste 14 Noroeste 0 929.8 -0.8 19
2017-08-03 12:00:00 29.9 5 Noroeste 11 Noroeste 0 930.3 0 27
2017-08-03 11:00:00 25.2 3 Este 7 Nordeste 0 930.7 0.7 46
2017-08-03 10:00:00 21.7 3 Noroeste 8 Oeste 0 930.6 0.7 64
2017-08-03 09:00:00 18.1 4 Sur 8 Sudeste 0 930.3 0.7 67
2017-08-03 08:00:00 15.4 6 Sur 8 Sudeste 0 930 0.6 76
2017-08-03 07:00:00 16.1 3 Sur 5 Sudeste 0 929.9 0.4 65
2017-08-03 06:00:00 17.2 5 Sudeste 9 Sudeste 0 929.6 0 56
2017-08-03 05:00:00 18.2 6 Sudeste 10 Sudeste 0 929.4 -0.5 53
2017-08-03 04:00:00 19.2 7 Sur 10 Sudeste 0 929.5 -0.7 57
2017-08-03 03:00:00 20.5 7 Sudeste 9 Sudeste 0 929.6 -0.5 70
2017-08-03 02:00:00 22 7 Sudeste 12 Sudeste 0 929.9 0 68
2017-08-03 01:00:00 23.2 7 Sudeste 19 Sudeste 0 930.2 1.3 64
2017-08-03 00:00:00 24.5 10 Sudeste 28 Sudeste 0 930.1 2.3 60
2017-08-02 23:00:00 25.8 15 Sur 25 Sudeste 0 929.9 3 59
2017-08-02 22:00:00 27.3 13 Sudeste 28 Sur 0 928.9 2.1 57
2017-08-02 21:00:00 30.7 13 Sur 26 Sudeste 0 927.8 0.9 44
2017-08-02 20:00:00 34.2 17 Sudeste 27 Sudeste 0 926.9 -0.2 31
2017-08-02 19:00:00 36.4 5 Noroeste 14 Noroeste 0 926.8 -0.6 18
2017-08-02 18:00:00 36.8 5 Noroeste 18 Sur 0 926.9 -0.8 17
2017-08-02 17:00:00 36.9 10 Oeste 23 Noroeste 0 927.1 -1 16
2017-08-02 16:00:00 36.5 5 Sudeste 19 Norte 0 927.4 -1 18
2017-08-02 15:00:00 34.8 8 Noroeste 15 Sudoeste 0 927.7 -1 19
2017-08-02 14:00:00 33.4 6 Sur 14 Sudeste 0 928.1 -0.8 24
2017-08-02 13:00:00 31.3 4 Oeste 14 Oeste 0 928.4 -0.5 29
2017-08-02 12:00:00 28.1 7 Oeste 12 Sudoeste 0 928.7 -0.2 33
2017-08-02 11:00:00 24.9 2 Oeste 9 Noroeste 0 928.9 0.3 39
2017-08-02 10:00:00 22.2 5 Noroeste 8 Noroeste 0 928.9 0.4 48
2017-08-02 09:00:00 21 3 Noroeste 9 Oeste 0 928.9 0.6 52
2017-08-02 08:00:00 21 5 Oeste 9 Oeste 0 928.6 0.4 46
2017-08-02 07:00:00 20.9 3 Oeste 15 Sudoeste 0 928.5 0.1 61
2017-08-02 06:00:00 22.8 6 Oeste 19 Oeste 0 928.3 -0.3 34
2017-08-02 05:00:00 22.8 13 Oeste 24 Sudoeste 0 928.2 -1 41
2017-08-02 04:00:00 21.6 3 Sur 9 Sudeste 0 928.4 -0.7 72
2017-08-02 03:00:00 22.7 7 Sudeste 16 Sudeste 0 928.6 -0.4 66
2017-08-02 02:00:00 23.6 9 Sur 17 Sudeste 0 929.2 1.1 68
2017-08-02 01:00:00 24.1 9 Sudeste 30 Sudeste 0 929.1 1.4 66
2017-08-02 00:00:00 24.8 15 Sudeste 33 Este 0 929 2.4 65
2017-08-01 23:00:00 25.3 11 Sudeste 18 Sur 0 928.1 1.9 65
2017-08-01 22:00:00 26.5 14 Sudeste 30 Sudeste 0 927.7 1.9 59
2017-08-01 21:00:00 29.3 18 Sudeste 91 Sur 0 926.6 1 36
2017-08-01 20:00:00 32.8 43 Sur 80 Sudoeste 0 926.2 0.3 14
2017-08-01 19:00:00 31.3 27 Sudoeste 67 Sudoeste 0 925.8 0.3 18
2017-08-01 18:00:00 27.9 5 Este 17 Este 0 925.6 -0.7 27
2017-08-01 17:00:00 28.4 15 Oeste 40 Oeste 0 925.9 0 23
2017-08-01 16:00:00 31.2 3 Este 12 Norte 0 925.5 -0.5 24
2017-08-01 15:00:00 32.6 6 Sur 14 Sudeste 0 926.3 0.3 17
2017-08-01 14:00:00 29.7 8 Nordeste 24 Oeste 0 925.9 0.2 24
2017-08-01 13:00:00 28.3 8 Norte 16 Oeste 0 926 0.3 22
2017-08-01 12:00:00 27.7 4 Sudeste 14 Oeste 0 926 0.7 25
2017-08-01 11:00:00 24.8 4 Noroeste 9 Noroeste 0 925.7 0.8 30
2017-08-01 10:00:00 22.6 3 Nordeste 13 Noroeste 0 925.7 1.2 37
2017-08-01 09:00:00 21.4 6 Noroeste 10 Sudoeste 0 925.3 1.1 42
2017-08-01 08:00:00 18.8 6 Sudoeste 10 Sudeste 0 924.9 1 49
2017-08-01 07:00:00 19.9 6 Sudeste 10 Noroeste 0 924.5 0.9 45
2017-08-01 06:00:00 22.2 6 Noroeste 17 Oeste 0 924.2 0.3 36
2017-08-01 05:00:00 23.6 12 Oeste 21 Oeste 0 923.9 0.2 30
2017-08-01 04:00:00 23.8 11 Noroeste 18 Oeste 0 923.6 -0.3 33
2017-08-01 03:00:00 21.8 5 Sudeste 13 Sudeste 0 923.9 0 58
2017-08-01 02:00:00 21.6 8 Sur 12 Sudeste 0 923.7 0.1 63
2017-08-01 01:00:00 22.7 9 Sudeste 13 Sudeste 0 923.9 1.2 60
2017-08-01 00:00:00 23.8 9 Sur 23 Sur 0 923.9 2 58
2017-07-31 23:00:00 24.7 13 Sudeste 29 Sudeste 0 923.6 2.6 55
2017-07-31 22:00:00 26.3 17 Sudeste 32 Sudeste 0 922.7 2 51
2017-07-31 21:00:00 31 15 Sudeste 24 Sudeste 0 921.9 1.2 37
2017-07-31 20:00:00 36.5 10 Oeste 19 Oeste 0 921 -0.1 13
2017-07-31 19:00:00 37 11 Noroeste 30 Oeste 0 920.7 -0.8 13
2017-07-31 18:00:00 37.7 19 Oeste 38 Oeste 0 920.7 -1.3 12
2017-07-31 17:00:00 38.7 10 Sudoeste 18 Sudoeste 0 921.1 -1.3 13
2017-07-31 16:00:00 37.9 8 Noroeste 21 Norte 0 921.5 -1.3 13
2017-07-31 15:00:00 37.3 7 Noroeste 21 Oeste 0 922 -1.4 14
2017-07-31 14:00:00 36.2 9 Norte 17 Norte 0 922.4 -1.1 14
2017-07-31 13:00:00 34.1 4 Norte 12 Nordeste 0 922.8 -0.9 17
2017-07-31 12:00:00 30.3 3 Oeste 8 Noroeste 0 923.4 -0.5 23
2017-07-31 11:00:00 25.8 3 Noroeste 9 Noroeste 0 923.5 -0.1 30
2017-07-31 10:00:00 22.4 5 Norte 8 Norte 0 923.7 0.2 37
2017-07-31 09:00:00 18.4 2 Nordeste 10 Sudeste 0 923.9 0.6 52
2017-07-31 08:00:00 15.5 7 Sudeste 10 Sudeste 0 923.6 0 54
2017-07-31 07:00:00 15.8 6 Sudeste 9 Sudeste 0 923.5 -0.2 55
2017-07-31 06:00:00 17.2 3 Sudoeste 10 Sur 0 923.3 -0.6 47
2017-07-31 05:00:00 18.3 3 Sur 7 Este 0 923.6 -0.6 47
2017-07-31 04:00:00 20.2 3 Este 8 Este 0 923.7 -0.7 57
2017-07-31 03:00:00 22.2 3 Sur 15 Sudeste 0 923.9 -0.6 52
2017-07-31 02:00:00 24 12 Sudeste 22 Sudeste 0 924.2 -0.2 46
2017-07-31 01:00:00 25 11 Sudeste 18 Sudeste 0 924.4 0.7 40
2017-07-31 00:00:00 26.6 10 Sudeste 19 Sudeste 0 924.5 1.4 35
2017-07-30 23:00:00 28.3 10 Sudeste 20 Sur 0 924.4 1.6 31
2017-07-30 22:00:00 30.5 10 Sur 23 Sur 0 923.7 1.2 26
2017-07-30 21:00:00 34.8 13 Sur 21 Sudeste 0 923.1 0.2 19
2017-07-30 20:00:00 38.1 13 Oeste 36 Oeste 0 922.8 -0.6 9
2017-07-30 19:00:00 39 18 Oeste 38 Sudeste 0 922.5 -1.6 8
2017-07-30 18:00:00 39.3 17 Noroeste 27 Noroeste 0 922.9 -1.7 7
2017-07-30 17:00:00 40.4 9 Este 24 Noroeste 0 923.4 -1.7 9
2017-07-30 16:00:00 39.5 13 Oeste 28 Noroeste 0 924.1 -1.7 9
2017-07-30 15:00:00 38.5 12 Noroeste 18 Noroeste 0 924.6 -1.9 10
2017-07-30 14:00:00 37.2 7 Noroeste 14 Norte 0 925.1 -1.9 12
2017-07-30 13:00:00 34.5 5 Noroeste 13 Norte 0 925.8 -1.4 14
2017-07-30 12:00:00 30.9 3 Noroeste 10 Noroeste 0 926.5 -1 17
2017-07-30 11:00:00 26.4 4 Noroeste 9 Noroeste 0 927 -0.3 23
2017-07-30 10:00:00 22.1 2 Este 9 Oeste 0 927.2 0.2 36
2017-07-30 09:00:00 19.3 4 Oeste 8 Oeste 0 927.5 0.4 40
2017-07-30 08:00:00 15.9 5 Sudeste 10 Noroeste 0 927.3 0 51
2017-07-30 07:00:00 16.4 4 Sudeste 8 Sudeste 0 927 -0.6 44
2017-07-30 06:00:00 16.7 2 Noroeste 6 Este 0 927.1 -0.9 36
2017-07-30 05:00:00 17.8 6 Sudeste 12 Sudeste 0 927.3 -0.9 33
2017-07-30 04:00:00 18.3 8 Sur 11 Sur 0 927.6 -0.6 33
2017-07-30 03:00:00 19.2 8 Sudeste 10 Sudeste 0 928 -0.2 32
2017-07-30 02:00:00 20.6 8 Sudeste 11 Sudeste 0 928.2 0 32
2017-07-30 01:00:00 21.8 8 Sudeste 13 Este 0 928.2 0.7 44
2017-07-30 00:00:00 23.8 9 Sudeste 14 Sudeste 0 928.2 1.3 52
2017-07-29 23:00:00 26.2 10 Sudeste 21 Sudeste 0 928.2 1.7 49
2017-07-29 22:00:00 30.2 13 Sudeste 18 Sudeste 0 927.5 1.3 32
2017-07-29 21:00:00 35 9 Oeste 26 Oeste 0 926.9 0.6 10
2017-07-29 20:00:00 36.8 14 Noroeste 27 Oeste 0 926.5 -0.1 10
2017-07-29 19:00:00 38.1 15 Oeste 29 Oeste 0 926.2 -0.9 10
2017-07-29 18:00:00 39.1 11 Noroeste 28 Oeste 0 926.3 -1.5 8
2017-07-29 17:00:00 39.2 11 Noroeste 23 Norte 0 926.6 -1.8 9
2017-07-29 16:00:00 38.2 9 Nordeste 26 Norte 0 927.1 -1.9 10
2017-07-29 15:00:00 37.3 7 Oeste 18 Oeste 0 927.8 -1.6 10
2017-07-29 14:00:00 36.7 8 Noroeste 17 Norte 0 928.4 -1.2 12
2017-07-29 13:00:00 33.7 3 Este 12 Norte 0 929 -0.8 16
2017-07-29 12:00:00 30 3 Nordeste 10 Noroeste 0 929.4 -0.3 22
2017-07-29 11:00:00 25.5 4 Norte 7 Nordeste 0 929.6 0.4 32
2017-07-29 10:00:00 22.1 3 Noroeste 6 Oeste 0 929.8 1 46
2017-07-29 09:00:00 19 4 Oeste 8 Sur 0 929.7 1.2 52
2017-07-29 08:00:00 14.9 6 Sur 8 Sur 0 929.2 0.8 68
2017-07-29 07:00:00 15.9 3 Sur 8 Sudeste 0 928.8 0.3 65
2017-07-29 06:00:00 17.4 5 Sudoeste 6 Sur 0 928.5 -0.2 61
2017-07-29 05:00:00 18.9 4 Noroeste 9 Sur 0 928.4 -0.5 53
2017-07-29 04:00:00 18.8 9 Sur 12 Sudeste 0 928.5 -0.3 42
2017-07-29 03:00:00 19.4 8 Sur 10 Sudeste 0 928.7 0.2 52
2017-07-29 02:00:00 20.7 7 Sudeste 9 Sudeste 0 928.9 0.6 56
2017-07-29 01:00:00 23.5 4 Sudoeste 12 Noroeste 0 928.8 1.2 48
2017-07-29 00:00:00 25.5 9 Sudeste 27 Sudeste 0 928.5 1.7 43
2017-07-28 23:00:00 27.1 15 Sudeste 26 Sudeste 0 928.3 2.1 39
2017-07-28 22:00:00 29 16 Sudeste 31 Sudeste 0 927.6 1.6 33
2017-07-28 21:00:00 33.5 12 Sur 21 Sur 0 926.8 0.7 24
2017-07-28 20:00:00 37.4 11 Oeste 23 Noroeste 0 926.2 -0.3 10
2017-07-28 19:00:00 38.4 9 Noroeste 26 Oeste 0 926 -1 10
2017-07-28 18:00:00 39.2 10 Oeste 22 Oeste 0 926.1 -1.4 10
2017-07-28 17:00:00 39.6 7 Noroeste 24 Noroeste 0 926.5 -1.5 10
2017-07-28 16:00:00 38.3 9 Oeste 24 Noroeste 0 927 -1.4 11
2017-07-28 15:00:00 37.3 10 Sudoeste 23 Sudoeste 0 927.5 -1.1 12
2017-07-28 14:00:00 35.5 9 Noroeste 22 Norte 0 928 -0.9 14
2017-07-28 13:00:00 33.9 6 Norte 17 Norte 0 928.4 -0.7 19
2017-07-28 12:00:00 30.4 5 Noroeste 11 Noroeste 0 928.6 -0.2 27
2017-07-28 11:00:00 25.3 3 Noroeste 8 Noroeste 0 928.9 0.3 41
2017-07-28 10:00:00 21.8 4 Noroeste 9 Norte 0 929.1 0.8 50
2017-07-28 09:00:00 19.1 3 Noroeste 6 Noroeste 0 928.8 0.8 57
2017-07-28 08:00:00 16.7 3 Nordeste 6 Norte 0 928.6 0.6 64
2017-07-28 07:00:00 16 3 Sur 8 Sudeste 0 928.3 0.5 62
2017-07-28 06:00:00 16.5 6 Sur 10 Sudeste 0 928 0.1 63
2017-07-28 05:00:00 17.2 6 Sudeste 7 Sudeste 0 928 0.2 60
2017-07-28 04:00:00 18.5 4 Sudeste 10 Sudeste 0 927.8 0 56
2017-07-28 03:00:00 19.1 8 Sudeste 9 Sudeste 0 927.9 0.1 61
2017-07-28 02:00:00 20.3 5 Este 10 Sudeste 0 927.8 0.6 64
2017-07-28 01:00:00 22.2 3 Sur 6 Sudeste 0 927.8 1.1 60
2017-07-28 00:00:00 23.9 3 Norte 19 Sudeste 0 927.8 1.8 55
2017-07-27 23:00:00 25.4 13 Sudeste 22 Sudeste 0 927.2 1.8 51
2017-07-27 22:00:00 27.2 13 Sudeste 24 Sudeste 0 926.7 1.6 44
2017-07-27 21:00:00 29.9 14 Sudeste 25 Sudeste 0 926 0.9 35
2017-07-27 20:00:00 33.6 14 Sudeste 27 Sudeste 0 925.4 -0.3 27
2017-07-27 19:00:00 36.9 14 Sudeste 24 Sudeste 0 925.1 -1.2 19
2017-07-27 18:00:00 37.9 9 Noroeste 23 Sur 0 925.1 -1.7 12
2017-07-27 17:00:00 37.2 4 Este 22 Oeste 0 925.7 -1.8 13
2017-07-27 16:00:00 36.4 8 Norte 19 Norte 0 926.3 -1.7 14
2017-07-27 15:00:00 35.3 8 Oeste 18 Oeste 0 926.8 -1.6 16
2017-07-27 14:00:00 33.6 5 Norte 14 Norte 0 927.5 -1.1 21
2017-07-27 13:00:00 31.6 7 Noroeste 14 Noroeste 0 928 -0.9 26
2017-07-27 12:00:00 28.7 5 Noroeste 12 Noroeste 0 928.4 -0.3 32
2017-07-27 11:00:00 24.7 4 Noroeste 9 Noroeste 0 928.6 0.3 44
2017-07-27 10:00:00 21.6 5 Norte 9 Norte 0 928.9 1 56
2017-07-27 09:00:00 17.8 2 Sur 6 Sudeste 0 928.7 1 70
2017-07-27 08:00:00 15.4 5 Sudeste 9 Sudeste 0 928.3 0.8 70
2017-07-27 07:00:00 16.1 6 Sudeste 9 Sur 0 927.9 0.2 65
2017-07-27 06:00:00 16.6 5 Sudeste 8 Sudeste 0 927.7 -0.1 64
2017-07-27 05:00:00 17.7 3 Sudeste 8 Sudeste 0 927.5 -0.3 60
2017-07-27 04:00:00 18.7 8 Sudeste 9 Sudeste 0 927.7 -0.3 63
2017-07-27 03:00:00 20.5 6 Este 9 Este 0 927.8 0.1 73
2017-07-27 02:00:00 21.8 5 Este 17 Sudeste 0 927.8 0.5 70
2017-07-27 01:00:00 22.6 8 Sudeste 16 Sudeste 0 928 1.5 67
2017-07-27 00:00:00 23.4 10 Sudeste 24 Sudeste 0 927.7 1.9 63
2017-07-26 23:00:00 24.3 15 Sudeste 31 Sudeste 0 927.3 2.4 61
2017-07-26 22:00:00 25.5 17 Sudeste 29 Sudeste 0 926.5 1.9 57
2017-07-26 21:00:00 29 20 Sudeste 34 Sur 0 925.8 0.9 45
2017-07-26 20:00:00 34.4 16 Oeste 32 Oeste 0 924.9 -0.3 14
2017-07-26 19:00:00 35.3 19 Oeste 28 Oeste 0 924.6 -1.1 13
2017-07-26 18:00:00 35.6 15 Oeste 30 Noroeste 0 924.9 -1.2 12
2017-07-26 17:00:00 35.6 15 Oeste 28 Oeste 0 925.2 -1.5 12
2017-07-26 16:00:00 34.9 15 Oeste 28 Noroeste 0 925.7 -1.2 14
2017-07-26 15:00:00 33.8 9 Noroeste 26 Oeste 0 926.1 -1.1 15
2017-07-26 14:00:00 32.8 13 Oeste 23 Oeste 0 926.7 -0.5 19
2017-07-26 13:00:00 30.9 12 Noroeste 21 Noroeste 0 926.9 -0.4 25
2017-07-26 12:00:00 27.7 5 Norte 11 Norte 0 927.2 0 45
2017-07-26 11:00:00 24.7 5 Norte 9 Norte 0 927.2 0.3 58
2017-07-26 10:00:00 21.6 3 Nordeste 9 Sudeste 0 927.3 0.8 73
2017-07-26 09:00:00 18.7 7 Sudeste 12 Sudeste 0 927.2 0.9 86
2017-07-26 08:00:00 16.5 7 Sudeste 10 Sudeste 0 926.9 0.6 89
2017-07-26 07:00:00 17.5 2 Norte 4 Nordeste 0 926.5 0 87
2017-07-26 06:00:00 18.3 3 Sudeste 16 Sudeste 0 926.3 -0.6 88
2017-07-26 05:00:00 18.9 5 Sur 19 Sudeste 0 926.3 -0.3 88
2017-07-26 04:00:00 19.4 9 Sudeste 17 Sudeste 0 926.5 0.2 88
2017-07-26 03:00:00 19.7 9 Sur 19 Sudeste 0 926.9 0.8 87
2017-07-26 02:00:00 20.2 11 Sudeste 23 Sudeste 0 926.6 0.7 84
2017-07-26 01:00:00 20.8 14 Sudeste 22 Sudeste 0 926.3 1.2 81
2017-07-26 00:00:00 21.2 14 Sudeste 23 Sudeste 0 926.1 1.9 79
2017-07-25 23:00:00 22 11 Sudeste 22 Sudeste 0 925.9 2.2 74
2017-07-25 22:00:00 23.4 12 Sudeste 36 Sudeste 0 925.1 1.7 66
2017-07-25 21:00:00 26.2 20 Sudeste 35 Sudeste 0 924.2 0.6 55
2017-07-25 20:00:00 29.7 19 Sudeste 35 Sudeste 0 923.7 -0.1 42
2017-07-25 19:00:00 32.9 19 Sudeste 37 Sudeste 0 923.4 -0.9 31
2017-07-25 18:00:00 36.3 8 Oeste 24 Noroeste 0 923.6 -1.5 13
2017-07-25 17:00:00 36.2 8 Norte 30 Oeste 0 923.8 -1.8 14
2017-07-25 16:00:00 35.1 13 Noroeste 31 Oeste 0 924.3 -1.9 14
2017-07-25 15:00:00 34.3 13 Noroeste 32 Norte 0 925.1 -1.7 14
2017-07-25 14:00:00 33.8 12 Noroeste 28 Norte 0 925.6 -1.5 14
2017-07-25 13:00:00 31.9 9 Noroeste 21 Noroeste 0 926.2 -1.1 20
2017-07-25 12:00:00 28.3 5 Nordeste 11 Norte 0 926.8 -0.5 25
2017-07-25 11:00:00 24.6 6 Noroeste 12 Noroeste 0 927.1 0 33
2017-07-25 10:00:00 21.7 5 Norte 10 Noroeste 0 927.3 0.5 40
2017-07-25 09:00:00 19 3 Norte 5 Noroeste 0 927.3 0.7 59
2017-07-25 08:00:00 16.9 2 Este 14 Sur 0 927.1 0.5 62
2017-07-25 07:00:00 15.6 10 Sur 11 Sur 0 926.8 -0.2 55
2017-07-25 06:00:00 17.3 4 Sudeste 9 Noroeste 0 926.6 -0.9 48
2017-07-25 05:00:00 17.7 4 Sur 9 Sur 0 926.6 -1.2 47
2017-07-25 04:00:00 19.4 6 Sur 10 Sudeste 0 927 -0.9 41
2017-07-25 03:00:00 20.2 8 Sudeste 12 Sudeste 0 927.5 -0.5 43
2017-07-25 02:00:00 21.8 4 Sudeste 11 Este 0 927.8 0 38
2017-07-25 01:00:00 23.1 6 Este 12 Este 0 927.9 0.5 37
2017-07-25 00:00:00 24.3 9 Este 15 Este 0 928 1 36
2017-07-24 23:00:00 26.6 8 Sudeste 13 Oeste 0 927.8 1 26
2017-07-24 22:00:00 29.9 9 Oeste 23 Noroeste 0 927.4 0.4 19
2017-07-24 21:00:00 32.5 15 Oeste 32 Oeste 0 927 0 15
2017-07-24 20:00:00 33.9 19 Noroeste 32 Oeste 0 926.8 -0.4 12
2017-07-24 19:00:00 34.4 17 Oeste 34 Noroeste 0 927 -0.6 12
2017-07-24 18:00:00 34.6 17 Noroeste 37 Oeste 0 927 -1.2 12
2017-07-24 17:00:00 35.3 19 Oeste 35 Noroeste 0 927.2 -1.7 12
2017-07-24 16:00:00 34.4 21 Noroeste 35 Noroeste 0 927.6 -1.8 13
2017-07-24 15:00:00 34 16 Noroeste 32 Noroeste 0 928.2 -1.7 13
2017-07-24 14:00:00 33 16 Noroeste 67 Sudoeste 0 928.9 -1.1 13
2017-07-24 13:00:00 31.7 17 Oeste 30 Oeste 0 929.4 -0.9 14
2017-07-24 12:00:00 30.2 14 Oeste 22 Oeste 0 929.9 -0.1 17
2017-07-24 11:00:00 25.1 5 Norte 12 Norte 0 930 -0.1 25
2017-07-24 10:00:00 22.1 8 Norte 13 Norte 0 930.3 0.7 26
2017-07-24 09:00:00 17.6 4 Sudeste 8 Sudeste 0 930 0.6 42
2017-07-24 08:00:00 15.2 6 Sur 11 Sudeste 0 930.1 0.7 42
2017-07-24 07:00:00 15.5 10 Sudeste 13 Sur 0 929.6 0.1 35
2017-07-24 06:00:00 16.1 6 Este 10 Este 0 929.4 -0.5 34
2017-07-24 05:00:00 16.7 7 Sudeste 11 Este 0 929.4 -0.6 33
2017-07-24 04:00:00 16.7 8 Sudeste 13 Sudeste 0 929.5 -0.6 37
2017-07-24 03:00:00 17.3 4 Este 8 Sudeste 0 929.9 -0.1 42
2017-07-24 02:00:00 18.2 4 Este 12 Sudeste 0 930 0.4 42
2017-07-24 01:00:00 19.8 5 Este 10 Sudeste 0 930.1 1.1 44
2017-07-24 00:00:00 22.5 8 Sudeste 15 Este 0 930 1.8 56
2017-07-23 23:00:00 25.9 9 Sudeste 18 Sudeste 0 929.6 2.1 40
2017-07-23 22:00:00 29.9 10 Oeste 18 Oeste 0 929 1.5 13
2017-07-23 21:00:00 33 9 Oeste 27 Noroeste 0 928.2 0.6 12
2017-07-23 20:00:00 34.1 16 Oeste 30 Oeste 0 927.5 -0.4 13
2017-07-23 19:00:00 35.5 14 Oeste 29 Oeste 0 927.5 -0.9 13
2017-07-23 18:00:00 35.5 20 Noroeste 31 Oeste 0 927.6 -1.6 12
2017-07-23 17:00:00 36.6 12 Noroeste 25 Noroeste 0 927.9 -1.8 12
2017-07-23 16:00:00 36.4 6 Sur 20 Noroeste 0 928.4 -1.5 13
2017-07-23 15:00:00 34.4 10 Oeste 22 Noroeste 0 929.2 -0.7 14
2017-07-23 14:00:00 32.8 12 Noroeste 24 Oeste 0 929.7 0 16
2017-07-23 13:00:00 31.3 10 Oeste 19 Oeste 0 929.9 0.5 15
2017-07-23 12:00:00 28.4 7 Noroeste 26 Oeste 0 929.9 0.8 26
2017-07-23 11:00:00 26 5 Oeste 13 Noroeste 0 929.7 0.9 28
2017-07-23 10:00:00 23 2 Este 11 Nordeste 0 929.4 0.6 41
2017-07-23 09:00:00 20.2 4 Este 10 Este 0 929.1 0.7 58
2017-07-23 08:00:00 18.3 5 Sudoeste 10 Sur 0 928.8 0.8 58
2017-07-23 07:00:00 17.6 7 Sudeste 9 Este 0 928.8 0.7 63
2017-07-23 06:00:00 18.8 4 Norte 11 Sudeste 0 928.4 -0.2 58
2017-07-23 05:00:00 17.9 7 Sudeste 10 Sudeste 0 928 -0.8 65
2017-07-23 04:00:00 18.9 8 Sudeste 9 Sudeste 0 928.1 -0.9 63
2017-07-23 03:00:00 20.6 6 Sudeste 9 Sur 0 928.6 0.1 58
2017-07-23 02:00:00 21.4 6 Sudeste 13 Sudeste 0 928.8 1 55
2017-07-23 01:00:00 22.1 6 Sur 16 Sudeste 0 929 2.1 52
2017-07-23 00:00:00 22.8 12 Sudeste 27 Sudeste 0 928.5 2.7 50
2017-07-22 23:00:00 24 14 Sudeste 27 Sur 0 927.8 2.6 46
2017-07-22 22:00:00 25.7 16 Sudeste 28 Sudeste 0 926.9 2 43
2017-07-22 21:00:00 31.5 14 Sudeste 26 Sudeste 0 925.8 1.1 30
2017-07-22 20:00:00 33.8 15 Oeste 26 Oeste 0 925.2 0.1 12
2017-07-22 19:00:00 34.8 18 Noroeste 28 Oeste 0 924.9 -0.4 13
2017-07-22 18:00:00 36.2 4 Oeste 21 Oeste 0 924.7 -0.9 14
2017-07-22 17:00:00 35 9 Norte 20 Norte 0 925.1 -1 16
2017-07-22 16:00:00 34 8 Norte 21 Norte 0 925.3 -1.2 16
2017-07-22 15:00:00 33.4 6 Oeste 20 Noroeste 0 925.6 -1.3 15
2017-07-22 14:00:00 31.6 8 Oeste 16 Noroeste 0 926.1 -0.8 19
2017-07-22 13:00:00 29.3 6 Oeste 13 Noroeste 0 926.5 -0.2 23
2017-07-22 12:00:00 25.9 5 Oeste 12 Noroeste 0 926.9 0.5 26
2017-07-22 11:00:00 22.6 4 Nordeste 10 Nordeste 0 926.9 0.9 31
2017-07-22 10:00:00 19.5 3 Este 7 Nordeste 0 926.7 1.1 38
2017-07-22 09:00:00 17.4 5 Norte 10 Noroeste 0 926.4 1 44
2017-07-22 08:00:00 15.6 3 Sudoeste 9 Oeste 0 926 1 56
2017-07-22 07:00:00 17.4 8 Oeste 13 Oeste 0 925.6 0.4 42
2017-07-22 06:00:00 17.1 5 Sudoeste 14 Oeste 0 925.4 0.1 49
2017-07-22 05:00:00 19.1 5 Oeste 15 Oeste 0 925 -0.3 34
2017-07-22 04:00:00 21 14 Oeste 20 Oeste 0 925.2 -0.2 28
2017-07-22 03:00:00 18.6 4 Sur 10 Sudeste 0 925.3 0.1 53
2017-07-22 02:00:00 20.1 6 Sur 12 Oeste 0 925.3 0.4 48
2017-07-22 01:00:00 22.7 5 Sur 18 Sudoeste 0 925.4 1.4 37
2017-07-22 00:00:00 24.8 13 Oeste 24 Oeste 0 925.2 1.9 23